Terminal Aerodrome Forecast
Issued by NWS

Home | Current Version | Previous Version | Text Only | Print | Product List | Glossary On
Versions: 1 2 3 4 5 6 7 8 9 10 11 12 13 14 15 16 17 18 19
662
FTUS43 KABR 272325
TAFATY
TAF
KATY 272325Z 2800/2824 19014G21KT P6SM SCT250
     FM280200 18007KT P6SM BKN250
     FM281100 VRB04KT P6SM SCT250
     FM281600 07008KT P6SM SCT250
     FM282000 19010KT P6SM BKN250=

USA.gov is the U.S. government's official web portal to all federal, state and local government web resources and services.